createdAt,value
2018-03-19T00:00:54.859Z,-2.58
2018-03-19T00:03:23.228Z,-2.44
2018-03-19T00:05:52.509Z,-2.43
2018-03-19T00:08:20.858Z,-2.43
2018-03-19T00:10:49.179Z,-2.58
2018-03-19T00:13:17.523Z,-2.41
2018-03-19T00:15:45.839Z,-2.40
2018-03-19T00:18:14.191Z,-2.51
2018-03-19T00:20:42.599Z,-2.63
2018-03-19T00:23:10.929Z,-2.61
2018-03-19T00:25:39.246Z,-2.58
2018-03-19T00:28:08.518Z,-2.63
2018-03-19T00:30:36.848Z,-2.58
2018-03-19T00:33:05.181Z,-2.56
2018-03-19T00:35:33.584Z,-2.50
2018-03-19T00:38:01.927Z,-2.49
2018-03-19T00:40:30.258Z,-2.67
2018-03-19T00:42:58.591Z,-2.45
2018-03-19T00:45:26.920Z,-2.71
2018-03-19T00:47:55.239Z,-2.64
2018-03-19T00:50:23.555Z,-2.54
2018-03-19T00:52:51.915Z,-2.58
2018-03-19T00:55:20.648Z,-2.65
2018-03-19T00:57:48.979Z,-2.62
2018-03-19T01:00:17.327Z,-2.74
2018-03-19T01:02:45.656Z,-2.78
2018-03-19T01:05:13.984Z,-2.64
2018-03-19T01:07:42.310Z,-2.72
2018-03-19T01:10:10.633Z,-2.72
2018-03-19T01:12:39.064Z,-2.69
2018-03-19T01:15:07.427Z,-2.73
2018-03-19T01:17:35.788Z,-2.71
2018-03-19T01:20:04.193Z,-2.57
2018-03-19T01:22:32.562Z,-2.60
2018-03-19T01:25:00.947Z,-2.69
2018-03-19T01:27:29.319Z,-2.54
2018-03-19T01:29:57.652Z,-2.52
2018-03-19T01:32:25.974Z,-2.55
2018-03-19T01:34:54.313Z,-2.49
2018-03-19T01:37:22.951Z,-2.81
2018-03-19T01:39:51.287Z,-2.59
2018-03-19T01:42:19.614Z,-2.56
2018-03-19T01:44:47.941Z,-2.47
2018-03-19T01:47:16.288Z,-2.62
2018-03-19T01:49:44.618Z,-2.85
2018-03-19T01:52:13.006Z,-2.84
2018-03-19T01:54:41.348Z,-2.65
2018-03-19T01:57:09.682Z,-2.64
2018-03-19T01:59:38.011Z,-2.62
2018-03-19T02:02:06.343Z,-2.68
2018-03-19T02:04:34.693Z,-2.67
2018-03-19T02:07:03.023Z,-2.64
2018-03-19T02:09:31.347Z,-2.58
2018-03-19T02:11:59.685Z,-2.62
2018-03-19T02:14:28.011Z,-2.71
2018-03-19T02:16:56.352Z,-2.68
2018-03-19T02:19:24.694Z,-2.88
2018-03-19T02:21:53.026Z,-2.93
2018-03-19T02:24:21.487Z,-2.81
2018-03-19T02:26:49.756Z,-2.82
2018-03-19T02:29:18.085Z,-2.65
2018-03-19T02:31:46.423Z,-2.72
2018-03-19T02:34:14.824Z,-2.85
2018-03-19T02:36:43.208Z,-2.73
2018-03-19T02:39:11.584Z,-2.85
2018-03-19T02:41:39.948Z,-2.69
2018-03-19T02:44:08.348Z,-2.74
2018-03-19T02:46:36.684Z,-2.81
2018-03-19T02:49:05.098Z,-2.84
2018-03-19T02:51:33.469Z,-2.76
2018-03-19T02:54:01.808Z,-2.72
2018-03-19T02:56:30.131Z,-2.69
2018-03-19T02:58:58.599Z,-2.94
2018-03-19T03:01:26.940Z,-2.91
2018-03-19T03:03:55.317Z,-2.75
2018-03-19T03:06:23.641Z,-2.91
2018-03-19T03:08:51.967Z,-2.89
2018-03-19T03:11:20.397Z,-2.92
2018-03-19T03:13:48.739Z,-2.72
2018-03-19T03:16:17.067Z,-2.83
2018-03-19T03:18:45.520Z,-2.75
2018-03-19T03:21:13.867Z,-2.86
2018-03-19T03:23:42.291Z,-2.88
2018-03-19T03:26:11.123Z,-3.00
2018-03-19T03:28:39.440Z,-2.72
2018-03-19T03:31:07.777Z,-2.74
2018-03-19T03:33:36.210Z,-2.93
2018-03-19T03:36:04.648Z,-2.85
2018-03-19T03:38:32.982Z,-2.75
2018-03-19T03:41:01.335Z,-3.12
2018-03-19T03:43:29.671Z,-3.14
2018-03-19T03:45:57.999Z,-2.93
2018-03-19T03:48:26.392Z,-2.78
2018-03-19T03:50:54.774Z,-2.79
2018-03-19T03:53:23.149Z,-2.77
2018-03-19T03:55:51.527Z,-2.95
2018-03-19T03:58:19.867Z,-2.94
2018-03-19T04:00:48.276Z,-2.85
2018-03-19T04:03:16.655Z,-2.86
2018-03-19T04:05:45.025Z,-2.92
2018-03-19T04:08:13.347Z,-2.95
2018-03-19T04:10:41.778Z,-2.93
2018-03-19T04:13:10.175Z,-3.02
2018-03-19T04:15:38.524Z,-3.11
2018-03-19T04:18:07.023Z,-3.16
2018-03-19T04:20:35.566Z,-2.98
2018-03-19T04:23:03.894Z,-3.22
2018-03-19T04:25:32.266Z,-3.05
2018-03-19T04:28:00.636Z,-2.93
2018-03-19T04:30:28.934Z,-2.84
2018-03-19T04:32:57.287Z,-2.93
2018-03-19T04:35:25.636Z,-2.95
2018-03-19T04:37:53.983Z,-2.88
2018-03-19T04:40:22.427Z,-3.14
2018-03-19T04:42:50.762Z,-3.14
2018-03-19T04:45:19.258Z,-2.98
2018-03-19T04:47:47.581Z,-2.91
2018-03-19T04:50:15.971Z,-2.93
2018-03-19T04:52:44.309Z,-3.13
2018-03-19T04:55:12.619Z,-3.21
2018-03-19T04:57:41.006Z,-3.26
2018-03-19T05:00:09.344Z,-3.10
2018-03-19T05:02:37.680Z,-3.03
2018-03-19T05:05:06.098Z,-3.27
2018-03-19T05:07:34.449Z,-3.07
2018-03-19T05:10:02.840Z,-3.16
2018-03-19T05:12:31.183Z,-3.18
2018-03-19T05:14:59.504Z,-3.03
2018-03-19T05:17:27.838Z,-3.05
2018-03-19T05:19:56.166Z,-2.95
2018-03-19T05:22:24.503Z,-3.06
2018-03-19T05:24:52.918Z,-2.97
2018-03-19T05:27:21.251Z,-3.04
2018-03-19T05:29:49.806Z,-3.12
2018-03-19T05:32:18.175Z,-2.96
2018-03-19T05:34:46.510Z,-2.98
2018-03-19T05:37:14.843Z,-3.08
2018-03-19T05:39:43.167Z,-2.97
2018-03-19T05:42:11.578Z,-3.26
2018-03-19T05:44:39.955Z,-3.16
2018-03-19T05:47:08.292Z,-3.05
2018-03-19T05:49:36.631Z,-3.14
2018-03-19T05:52:04.957Z,-3.11
2018-03-19T05:54:33.293Z,-3.11
2018-03-19T05:57:01.632Z,-3.06
2018-03-19T05:59:30.095Z,-3.05
2018-03-19T06:01:58.433Z,-3.03
2018-03-19T06:04:26.884Z,-3.16
2018-03-19T06:06:55.219Z,-3.03
2018-03-19T06:09:23.561Z,-3.01
2018-03-19T06:11:51.908Z,-2.89
2018-03-19T06:14:20.214Z,-3.00
2018-03-19T06:16:48.558Z,-3.08
2018-03-19T06:19:16.892Z,-3.12
2018-03-19T06:21:45.214Z,-3.31
2018-03-19T06:24:13.548Z,-3.17
2018-03-19T06:26:41.889Z,-3.17
2018-03-19T06:29:10.216Z,-3.10
2018-03-19T06:31:38.644Z,-3.23
2018-03-19T06:34:06.980Z,-3.18
2018-03-19T06:36:35.399Z,-3.14
2018-03-19T06:39:03.736Z,-3.00
2018-03-19T06:41:32.063Z,-3.14
2018-03-19T06:44:00.715Z,-3.11
2018-03-19T06:46:29.107Z,-3.02
2018-03-19T06:48:57.474Z,-2.90
2018-03-19T06:51:25.797Z,-2.97
2018-03-19T06:53:54.135Z,-2.98
2018-03-19T06:56:22.514Z,-3.03
2018-03-19T06:58:50.898Z,-3.24
2018-03-19T07:01:19.234Z,-3.04
2018-03-19T07:03:47.655Z,-2.88
2018-03-19T07:06:16.000Z,-2.94
2018-03-19T07:08:44.405Z,-2.83
2018-03-19T07:11:12.751Z,-3.12
2018-03-19T07:13:41.087Z,-2.95
2018-03-19T07:16:09.419Z,-3.05
2018-03-19T07:18:37.767Z,-3.04
2018-03-19T07:21:06.201Z,-2.99
2018-03-19T07:23:34.608Z,-3.09
2018-03-19T07:26:02.975Z,-2.92
2018-03-19T07:28:31.341Z,-2.79
2018-03-19T07:30:59.675Z,-2.73
2018-03-19T07:33:28.011Z,-2.67
2018-03-19T07:35:56.332Z,-2.85
2018-03-19T07:38:24.649Z,-2.85
2018-03-19T07:40:53.176Z,-2.65
2018-03-19T07:43:21.483Z,-2.70
2018-03-19T07:45:49.840Z,-2.75
2018-03-19T07:48:18.243Z,-2.65
2018-03-19T07:50:46.572Z,-2.59
2018-03-19T07:53:14.919Z,-2.59
2018-03-19T07:55:43.263Z,-2.61
2018-03-19T07:58:11.598Z,-2.79
2018-03-19T08:00:39.941Z,-2.71
2018-03-19T08:03:08.332Z,-2.67
2018-03-19T08:05:36.675Z,-2.78
2018-03-19T08:08:05.158Z,-2.83
2018-03-19T08:10:33.597Z,-2.76
2018-03-19T08:13:01.944Z,-2.60
2018-03-19T08:15:30.274Z,-2.78
2018-03-19T08:17:58.690Z,-2.79
2018-03-19T08:20:27.018Z,-2.81
2018-03-19T08:22:55.450Z,-2.74
2018-03-19T08:25:23.794Z,-2.79
2018-03-19T08:27:52.132Z,-2.55
2018-03-19T08:30:20.475Z,-2.44
2018-03-19T08:32:48.815Z,-2.71
2018-03-19T08:35:17.147Z,-2.54
2018-03-19T08:37:45.487Z,-2.69
2018-03-19T08:40:13.811Z,-2.57
2018-03-19T08:42:42.163Z,-2.37
2018-03-19T08:45:10.515Z,-2.59
2018-03-19T08:47:38.858Z,-2.44
2018-03-19T08:50:07.211Z,-2.61
2018-03-19T08:52:35.586Z,-2.25
2018-03-19T08:55:03.938Z,-2.22
2018-03-19T08:57:32.278Z,-2.35
2018-03-19T09:00:00.608Z,-2.38
2018-03-19T09:02:28.946Z,-2.19
2018-03-19T09:04:57.274Z,-2.34
2018-03-19T09:07:25.609Z,-2.34
2018-03-19T09:09:54.029Z,-2.35
2018-03-19T09:12:22.403Z,-2.14
2018-03-19T09:14:50.727Z,-1.87
2018-03-19T09:17:19.048Z,-1.85
2018-03-19T09:19:47.442Z,-1.96
2018-03-19T09:22:15.771Z,-2.13
2018-03-19T09:24:44.132Z,-2.05
2018-03-19T09:27:12.457Z,-1.91
2018-03-19T09:29:40.846Z,-2.15
2018-03-19T09:32:09.202Z,-2.09
2018-03-19T09:34:37.554Z,-2.04
2018-03-19T09:37:05.894Z,-2.14
2018-03-19T09:39:34.229Z,-2.01
2018-03-19T09:42:02.562Z,-1.95
2018-03-19T09:44:30.904Z,-1.88
2018-03-19T09:46:59.296Z,-1.80
2018-03-19T09:49:27.637Z,-1.92
2018-03-19T09:51:56.009Z,-1.97
2018-03-19T09:54:24.331Z,-1.86
2018-03-19T09:56:52.675Z,-1.69
2018-03-19T09:59:21.011Z,-1.60
2018-03-19T10:01:49.365Z,-1.62
2018-03-19T10:04:17.693Z,-1.64
2018-03-19T10:06:46.029Z,-1.79
2018-03-19T10:09:14.390Z,-1.73
2018-03-19T10:11:42.730Z,-1.79
2018-03-19T10:14:11.122Z,-1.90
2018-03-19T10:16:39.460Z,-2.14
2018-03-19T10:19:07.798Z,-2.29
2018-03-19T10:21:36.146Z,-2.22
2018-03-19T10:24:04.485Z,-1.95
2018-03-19T10:26:32.838Z,-1.79
2018-03-19T10:29:01.236Z,-1.92
2018-03-19T10:31:29.592Z,-1.95
2018-03-19T10:33:57.987Z,-1.96
2018-03-19T10:36:26.345Z,-2.05
2018-03-19T10:38:54.675Z,-2.11
2018-03-19T10:41:23.007Z,-1.93
2018-03-19T10:43:51.382Z,-1.95
2018-03-19T10:46:19.728Z,-1.96
2018-03-19T10:48:48.058Z,-1.94
2018-03-19T10:51:16.444Z,-1.87
2018-03-19T10:53:44.773Z,-1.87
2018-03-19T10:56:13.188Z,-1.94
2018-03-19T10:58:41.524Z,-1.81
2018-03-19T11:01:12.868Z,-1.90
2018-03-19T11:03:42.050Z,-1.98
2018-03-19T11:06:15.964Z,-1.70
2018-03-19T11:08:47.115Z,-1.68
2018-03-19T11:11:15.457Z,-1.70
2018-03-19T11:13:43.909Z,-1.73
2018-03-19T11:16:12.235Z,-1.61
2018-03-19T11:18:40.590Z,-1.75
2018-03-19T11:21:08.914Z,-1.95
2018-03-19T11:23:37.310Z,-1.69
2018-03-19T11:26:05.808Z,-1.58
2018-03-19T11:28:34.139Z,-1.71
2018-03-19T11:31:02.469Z,-2.00
2018-03-19T11:33:30.862Z,-2.03
2018-03-19T11:35:59.193Z,-2.18
2018-03-19T11:38:27.530Z,-2.07
2018-03-19T11:40:55.849Z,-1.96
2018-03-19T11:43:24.225Z,-1.89
2018-03-19T11:45:52.567Z,-1.81
2018-03-19T11:48:20.896Z,-1.89
2018-03-19T11:50:49.278Z,-1.78
2018-03-19T11:53:17.656Z,-1.68
2018-03-19T11:55:46.003Z,-1.91
2018-03-19T11:58:14.339Z,-1.86
2018-03-19T12:00:42.696Z,-1.84
2018-03-19T12:03:11.060Z,-1.72
2018-03-19T12:05:39.407Z,-1.70
2018-03-19T12:08:07.738Z,-1.69
2018-03-19T12:10:36.166Z,-1.70
2018-03-19T12:13:04.504Z,-1.54
2018-03-19T12:15:32.856Z,-1.43
2018-03-19T12:18:01.184Z,-1.29
2018-03-19T12:20:29.613Z,-1.43
2018-03-19T12:22:57.935Z,-1.46
2018-03-19T12:25:26.279Z,-1.28
2018-03-19T12:27:54.611Z,-1.23
2018-03-19T12:30:22.946Z,-1.36
2018-03-19T12:32:51.294Z,-1.46
2018-03-19T12:35:19.640Z,-1.45
2018-03-19T12:37:47.971Z,-1.36
2018-03-19T12:40:16.299Z,-1.33
2018-03-19T12:42:44.652Z,-1.25
2018-03-19T12:45:13.075Z,-1.20
2018-03-19T12:47:41.488Z,-1.18
2018-03-19T12:50:09.824Z,-1.41
2018-03-19T12:52:38.241Z,-1.33
2018-03-19T12:55:06.573Z,-1.34
2018-03-19T12:57:34.910Z,-1.40
2018-03-19T13:00:03.256Z,-1.06
2018-03-19T13:02:31.571Z,-0.99
2018-03-19T13:04:59.911Z,-1.08
2018-03-19T13:07:28.291Z,-1.07
2018-03-19T13:09:56.637Z,-0.99
2018-03-19T13:12:24.975Z,-0.95
2018-03-19T13:14:53.420Z,-1.14
2018-03-19T13:17:21.754Z,-1.14
2018-03-19T13:19:50.170Z,-1.04
2018-03-19T13:22:18.554Z,-0.89
2018-03-19T13:24:46.930Z,-0.77
2018-03-19T13:27:15.269Z,-0.64
2018-03-19T13:29:43.676Z,-0.60
2018-03-19T13:32:12.020Z,-0.92
2018-03-19T13:34:40.342Z,-0.60
2018-03-19T13:37:08.727Z,-0.53
2018-03-19T13:39:37.051Z,-0.43
2018-03-19T13:42:05.413Z,-0.48
2018-03-19T13:44:33.769Z,-0.75
2018-03-19T13:47:02.135Z,-0.52
2018-03-19T13:49:30.462Z,-0.73
2018-03-19T13:51:58.887Z,-0.63
2018-03-19T13:54:27.207Z,-0.56
2018-03-19T13:56:55.578Z,-0.75
2018-03-19T13:59:23.894Z,-0.86
2018-03-19T14:01:52.238Z,-0.80
2018-03-19T14:04:20.617Z,-1.09
2018-03-19T14:06:48.954Z,-0.92
2018-03-19T14:09:17.282Z,-0.99
2018-03-19T14:11:45.634Z,-0.90
2018-03-19T14:14:13.985Z,-0.92
2018-03-19T14:16:42.308Z,-1.05
2018-03-19T14:19:10.739Z,-1.01
2018-03-19T14:21:39.075Z,-0.79
2018-03-19T14:24:07.419Z,-1.34
2018-03-19T14:26:35.791Z,-1.16
2018-03-19T14:29:04.151Z,-0.96
2018-03-19T14:31:32.487Z,-1.10
2018-03-19T14:34:00.830Z,-1.14
2018-03-19T14:36:29.166Z,-1.39
2018-03-19T14:38:57.571Z,-1.27
2018-03-19T14:41:25.924Z,-1.30
2018-03-19T14:43:54.360Z,-1.15
2018-03-19T14:46:22.711Z,-1.04
2018-03-19T14:48:51.081Z,-1.23
2018-03-19T14:51:19.411Z,-1.33
2018-03-19T14:53:47.855Z,-1.12
2018-03-19T14:56:16.183Z,-1.30
2018-03-19T14:58:44.512Z,-1.33
2018-03-19T15:01:12.868Z,-1.16
2018-03-19T15:03:41.195Z,-1.47
2018-03-19T15:06:09.627Z,-1.28
2018-03-19T15:08:37.957Z,-1.38
2018-03-19T15:11:06.387Z,-1.41
2018-03-19T15:13:34.714Z,-1.46
2018-03-19T15:16:03.138Z,-1.61
2018-03-19T15:18:31.520Z,-1.60
2018-03-19T15:20:59.903Z,-1.58
2018-03-19T15:23:28.244Z,-1.60
2018-03-19T15:25:56.596Z,-1.62
2018-03-19T15:28:24.933Z,-1.55
2018-03-19T15:30:53.269Z,-1.64
2018-03-19T15:33:21.608Z,-1.58
2018-03-19T15:35:49.958Z,-1.64
2018-03-19T15:38:18.286Z,-1.71
2018-03-19T15:40:46.618Z,-1.69
2018-03-19T15:43:14.975Z,-1.67
2018-03-19T15:45:43.312Z,-1.65
2018-03-19T15:48:11.635Z,-1.96
2018-03-19T15:50:39.996Z,-1.79
2018-03-19T15:53:08.395Z,-1.96
2018-03-19T15:55:36.742Z,-2.04
2018-03-19T15:58:05.076Z,-2.12
2018-03-19T16:00:33.426Z,-2.14
2018-03-19T16:03:01.762Z,-1.95
2018-03-19T16:05:30.137Z,-1.99
2018-03-19T16:07:58.462Z,-2.01
2018-03-19T16:10:26.842Z,-2.02
2018-03-19T16:12:55.182Z,-1.92
2018-03-19T16:15:23.516Z,-2.04
2018-03-19T16:17:51.862Z,-2.17
2018-03-19T16:20:20.207Z,-2.20
2018-03-19T16:22:48.559Z,-2.13
2018-03-19T16:25:16.887Z,-2.10
2018-03-19T16:27:45.327Z,-2.14
2018-03-19T16:30:13.647Z,-2.11
2018-03-19T16:32:41.998Z,-2.19
2018-03-19T16:35:10.328Z,-2.15
2018-03-19T16:37:38.706Z,-2.24
2018-03-19T16:40:07.040Z,-2.15
2018-03-19T16:42:35.452Z,-2.28
2018-03-19T16:45:03.789Z,-2.30
2018-03-19T16:47:32.132Z,-2.29
2018-03-19T16:50:00.468Z,-2.24
2018-03-19T16:52:28.873Z,-2.31
2018-03-19T16:54:57.196Z,-2.48
2018-03-19T16:57:25.601Z,-2.54
2018-03-19T16:59:54.016Z,-2.47
2018-03-19T17:02:22.346Z,-2.44
2018-03-19T17:04:50.724Z,-2.53
2018-03-19T17:07:19.154Z,-2.48
2018-03-19T17:09:47.483Z,-2.43
2018-03-19T17:12:15.820Z,-2.50
2018-03-19T17:14:44.186Z,-2.61
2018-03-19T17:17:12.555Z,-2.67
2018-03-19T17:19:40.941Z,-2.68
2018-03-19T17:22:09.329Z,-2.61
2018-03-19T17:24:37.684Z,-2.62
2018-03-19T17:27:06.105Z,-2.58
2018-03-19T17:29:34.448Z,-2.58
2018-03-19T17:32:02.790Z,-2.53
2018-03-19T17:34:31.111Z,-2.56
2018-03-19T17:36:59.477Z,-2.66
2018-03-19T17:39:27.811Z,-2.76
2018-03-19T17:41:56.139Z,-2.78
2018-03-19T17:44:24.509Z,-2.80
2018-03-19T17:46:52.850Z,-2.71
2018-03-19T17:49:21.442Z,-2.78
2018-03-19T17:51:49.771Z,-2.76
2018-03-19T17:54:18.166Z,-2.73
2018-03-19T17:56:47.323Z,-2.78
2018-03-19T17:59:15.662Z,-2.79
2018-03-19T18:01:44.042Z,-2.83
2018-03-19T18:04:12.382Z,-2.92
2018-03-19T18:06:40.763Z,-2.87
2018-03-19T18:09:09.110Z,-2.93
2018-03-19T18:11:37.602Z,-2.96
2018-03-19T18:14:05.946Z,-3.00
2018-03-19T18:16:34.455Z,-3.07
2018-03-19T18:19:02.819Z,-3.04
2018-03-19T18:21:31.173Z,-3.03
2018-03-19T18:23:59.588Z,-3.06
2018-03-19T18:26:27.971Z,-3.13
2018-03-19T18:28:56.303Z,-3.05
2018-03-19T18:31:24.738Z,-3.01
2018-03-19T18:33:53.132Z,-3.04
2018-03-19T18:36:21.504Z,-3.07
2018-03-19T18:38:49.830Z,-3.05
2018-03-19T18:41:18.215Z,-3.11
2018-03-19T18:43:46.570Z,-3.10
2018-03-19T18:46:14.913Z,-3.14
2018-03-19T18:48:43.274Z,-3.06
2018-03-19T18:51:11.662Z,-3.05
2018-03-19T18:53:40.227Z,-3.01
2018-03-19T18:56:08.613Z,-3.03
2018-03-19T18:58:36.958Z,-3.11
2018-03-19T19:01:05.354Z,-3.08
2018-03-19T19:03:33.683Z,-3.27
2018-03-19T19:06:02.118Z,-3.11
2018-03-19T19:08:30.456Z,-3.08
2018-03-19T19:10:58.955Z,-3.15
2018-03-19T19:13:27.355Z,-3.10
2018-03-19T19:15:55.702Z,-3.12
2018-03-19T19:18:24.031Z,-3.13
2018-03-19T19:20:52.392Z,-3.13
2018-03-19T19:23:20.733Z,-3.18
2018-03-19T19:25:49.108Z,-3.13
2018-03-19T19:28:17.438Z,-3.13
2018-03-19T19:30:45.807Z,-2.94
2018-03-19T19:33:14.141Z,-3.02
2018-03-19T19:35:42.507Z,-3.14
2018-03-19T19:38:10.841Z,-3.09
2018-03-19T19:40:39.179Z,-3.06
2018-03-19T19:43:07.855Z,-3.13
2018-03-19T19:45:36.205Z,-3.15
2018-03-19T19:48:04.553Z,-3.13
2018-03-19T19:50:32.912Z,-3.06
2018-03-19T19:53:01.305Z,-3.02
2018-03-19T19:55:29.634Z,-3.26
2018-03-19T19:57:58.020Z,-3.03
2018-03-19T20:00:26.356Z,-3.15
2018-03-19T20:02:54.734Z,-3.27
2018-03-19T20:05:23.062Z,-3.34
2018-03-19T20:07:51.430Z,-3.23
2018-03-19T20:10:19.787Z,-3.21
2018-03-19T20:12:48.152Z,-3.18
2018-03-19T20:15:16.492Z,-3.21
2018-03-19T20:17:44.857Z,-3.19
2018-03-19T20:20:13.259Z,-3.15
2018-03-19T20:22:41.639Z,-3.17
2018-03-19T20:25:09.978Z,-2.96
2018-03-19T20:27:38.436Z,-3.03
2018-03-19T20:30:06.751Z,-3.02
2018-03-19T20:32:35.157Z,-3.07
2018-03-19T20:35:03.482Z,-3.01
2018-03-19T20:37:31.940Z,-3.09
2018-03-19T20:40:00.265Z,-3.01
2018-03-19T20:42:28.618Z,-3.01
2018-03-19T20:44:56.955Z,-3.15
2018-03-19T20:47:25.332Z,-3.04
2018-03-19T20:49:53.670Z,-3.06
2018-03-19T20:52:22.199Z,-2.98
2018-03-19T20:54:50.531Z,-3.01
2018-03-19T20:57:18.873Z,-2.96
2018-03-19T20:59:47.215Z,-3.01
2018-03-19T21:02:15.599Z,-2.99
2018-03-19T21:04:43.953Z,-2.98
2018-03-19T21:07:12.354Z,-2.95
2018-03-19T21:09:40.760Z,-2.99
2018-03-19T21:12:09.078Z,-2.97
2018-03-19T21:14:37.445Z,-3.00
2018-03-19T21:17:05.766Z,-2.98
2018-03-19T21:19:34.110Z,-3.03
2018-03-19T21:22:02.442Z,-3.00
2018-03-19T21:24:30.788Z,-2.99
2018-03-19T21:26:59.121Z,-2.99
2018-03-19T21:29:27.458Z,-3.00
2018-03-19T21:31:55.872Z,-3.06
2018-03-19T21:34:24.235Z,-2.97
2018-03-19T21:36:52.589Z,-3.03
2018-03-19T21:39:20.939Z,-3.03
2018-03-19T21:41:49.335Z,-3.09
2018-03-19T21:44:17.687Z,-3.06
2018-03-19T21:46:46.006Z,-3.10
2018-03-19T21:49:14.360Z,-3.23
2018-03-19T21:51:42.687Z,-3.20
2018-03-19T21:54:11.012Z,-3.09
2018-03-19T21:56:39.359Z,-3.07
2018-03-19T21:59:07.690Z,-3.00
2018-03-19T22:01:36.053Z,-3.12
2018-03-19T22:04:04.388Z,-3.13
2018-03-19T22:06:32.738Z,-3.15
2018-03-19T22:09:01.120Z,-3.10
2018-03-19T22:11:29.583Z,-3.11
2018-03-19T22:13:57.955Z,-3.14
2018-03-19T22:16:26.336Z,-3.28
2018-03-19T22:18:54.731Z,-3.20
2018-03-19T22:21:23.094Z,-3.23
2018-03-19T22:23:51.423Z,-3.26
2018-03-19T22:26:19.895Z,-3.35
2018-03-19T22:28:48.383Z,-3.31
2018-03-19T22:31:16.730Z,-3.30
2018-03-19T22:33:45.058Z,-3.32
2018-03-19T22:36:13.406Z,-3.35
2018-03-19T22:38:41.738Z,-3.36
2018-03-19T22:41:10.104Z,-3.35
2018-03-19T22:43:38.442Z,-3.31
2018-03-19T22:46:06.776Z,-3.37
2018-03-19T22:48:35.143Z,-3.33
2018-03-19T22:51:03.528Z,-3.34
2018-03-19T22:53:31.857Z,-3.38
2018-03-19T22:56:00.187Z,-3.15
2018-03-19T22:58:28.538Z,-3.19
2018-03-19T23:00:56.931Z,-3.44
2018-03-19T23:03:25.307Z,-3.39
2018-03-19T23:05:53.643Z,-3.45
2018-03-19T23:08:22.063Z,-3.43
2018-03-19T23:10:50.446Z,-3.48
2018-03-19T23:13:18.794Z,-3.46
2018-03-19T23:15:47.115Z,-3.48
2018-03-19T23:18:15.452Z,-3.39
2018-03-19T23:20:43.808Z,-3.44
2018-03-19T23:23:12.146Z,-3.38
2018-03-19T23:25:40.472Z,-3.45
2018-03-19T23:28:08.835Z,-3.45
2018-03-19T23:30:37.159Z,-3.53
2018-03-19T23:33:05.508Z,-3.53
2018-03-19T23:35:33.850Z,-3.45
2018-03-19T23:38:02.208Z,-3.43
2018-03-19T23:40:30.536Z,-3.48
2018-03-19T23:42:58.878Z,-3.46
2018-03-19T23:45:27.198Z,-3.45
2018-03-19T23:47:55.538Z,-3.47
2018-03-19T23:50:23.872Z,-3.49
2018-03-19T23:52:52.258Z,-3.44
2018-03-19T23:55:20.671Z,-3.42
2018-03-19T23:57:48.998Z,-3.42
